Time;durP1;ratioP1;P1;durP2;ratioP2;P2;SDS_P1;SDS_P2;PMS_P1;PMS_P2;Temp;Humidity;BMP_temperature;BMP_pressure;BME280_temperature;BME280_humidity;BME280_pressure;Samples;Min_cycle;Max_cycle;Signal;HPM_P1;HPM_P2
2022/09/14 00:00:27;;;;;;;2.28;1.10;;;14.40;99.90;;;;;;4953567;28;20054;-35
2022/09/14 00:02:54;;;;;;;4.13;1.10;;;14.40;99.90;;;;;;4952493;28;20047;-34
2022/09/14 00:05:19;;;;;;;2.97;1.10;;;14.40;99.90;;;;;;4953847;28;20057;-35
2022/09/14 00:07:45;;;;;;;4.32;0.90;;;14.40;99.90;;;;;;4951665;28;20497;-34
2022/09/14 00:10:11;;;;;;;3.50;1.00;;;14.40;99.90;;;;;;4951521;28;20405;-34
2022/09/14 00:12:36;;;;;;;2.80;1.10;;;14.50;99.90;;;;;;4945593;29;20173;-35
2022/09/14 00:15:03;;;;;;;3.35;0.95;;;14.50;99.90;;;;;;4954959;28;20055;-35
2022/09/14 00:17:29;;;;;;;2.28;1.17;;;14.50;99.90;;;;;;4954906;28;20047;-35
2022/09/14 00:19:54;;;;;;;4.28;1.40;;;14.60;99.90;;;;;;4955203;29;20151;-35
2022/09/14 00:22:20;;;;;;;3.20;0.80;;;14.60;99.90;;;;;;4953942;28;20161;-35
2022/09/14 00:24:46;;;;;;;4.18;1.30;;;14.60;99.90;;;;;;4951606;28;20070;-36
2022/09/14 00:27:11;;;;;;;2.83;0.95;;;14.50;99.90;;;;;;4951224;28;20061;-36
2022/09/14 00:29:37;;;;;;;3.13;1.42;;;14.50;99.90;;;;;;4952683;28;20086;-34
2022/09/14 00:32:03;;;;;;;2.28;1.00;;;14.50;99.90;;;;;;4954279;29;20187;-34
2022/09/14 00:34:29;;;;;;;2.58;1.10;;;14.50;99.90;;;;;;4954887;29;20101;-34
2022/09/14 00:36:55;;;;;;;2.30;1.23;;;14.50;99.90;;;;;;4952052;28;20031;-34
2022/09/14 00:39:22;;;;;;;2.85;1.05;;;14.50;99.90;;;;;;4951484;28;20497;-35
2022/09/14 00:41:49;;;;;;;2.92;1.00;;;14.50;99.90;;;;;;4955054;29;20045;-36
2022/09/14 00:44:15;;;;;;;2.35;1.02;;;14.40;99.90;;;;;;4949365;28;20058;-35
2022/09/14 00:46:44;;;;;;;2.35;0.98;;;14.40;99.90;;;;;;4952602;28;20031;-35
2022/09/14 00:49:18;;;;;;;3.72;1.20;;;14.40;99.90;;;;;;4949961;28;20053;-35
2022/09/14 00:52:07;;;;;;;1.42;0.80;;;14.40;99.90;;;;;;4954487;28;20039;-35
2022/09/14 00:54:45;;;;;;;3.53;1.17;;;14.40;99.90;;;;;;4954066;29;20531;-34
2022/09/14 00:57:11;;;;;;;4.05;1.20;;;14.40;99.90;;;;;;4954646;29;20540;-36
2022/09/14 00:59:39;;;;;;;3.13;1.20;;;14.30;99.90;;;;;;4954009;28;20924;-44
2022/09/14 01:02:08;;;;;;;3.20;1.20;;;14.30;99.90;;;;;;4952662;28;20404;-35
2022/09/14 01:04:35;;;;;;;3.83;1.55;;;14.40;99.90;;;;;;4942474;28;20047;-36
2022/09/14 01:07:35;;;;;;;2.75;1.35;;;14.40;99.90;;;;;;4952473;28;20051;-34
2022/09/14 01:10:04;;;;;;;2.88;1.30;;;14.30;99.90;;;;;;4951308;28;20429;-34
2022/09/14 01:12:35;;;;;;;2.75;1.10;;;14.30;99.90;;;;;;4949340;29;20086;-34
2022/09/14 01:15:11;;;;;;;3.15;1.38;;;14.30;99.90;;;;;;4953259;28;20051;-35
2022/09/14 01:18:07;;;;;;;6.53;1.42;;;14.30;99.90;;;;;;4954156;29;20079;-35
2022/09/14 01:20:44;;;;;;;3.85;1.00;;;14.30;99.90;;;;;;4953264;28;20724;-36
2022/09/14 01:23:28;;;;;;;3.05;1.20;;;14.20;99.90;;;;;;4954029;28;20043;-36
2022/09/14 01:26:10;;;;;;;2.78;1.02;;;14.20;99.90;;;;;;4953897;28;20179;-36
2022/09/14 01:29:08;;;;;;;3.45;0.98;;;14.20;99.90;;;;;;4948313;29;20057;-35
2022/09/14 01:32:00;;;;;;;2.17;0.98;;;14.10;99.90;;;;;;4946334;29;20094;-36
2022/09/14 01:34:39;;;;;;;3.80;1.05;;;14.10;99.90;;;;;;4942676;28;20047;-35
2022/09/14 01:37:26;;;;;;;1.48;0.90;;;14.10;99.90;;;;;;4952640;28;20058;-35
2022/09/14 01:39:58;;;;;;;2.30;1.20;;;14.10;99.90;;;;;;4951356;28;20110;-36
2022/09/14 01:42:26;;;;;;;3.67;1.35;;;14.00;99.90;;;;;;4946875;28;20042;-37
2022/09/14 01:45:00;;;;;;;4.63;1.17;;;14.00;99.90;;;;;;4953470;28;20050;-36
2022/09/14 01:47:32;;;;;;;2.92;0.98;;;14.00;99.90;;;;;;4953489;28;20065;-35
2022/09/14 01:50:12;;;;;;;1.90;1.00;;;14.00;99.90;;;;;;4949904;28;20075;-34
2022/09/14 01:52:46;;;;;;;4.53;1.50;;;14.00;99.90;;;;;;4951924;28;20047;-35
2022/09/14 01:55:16;;;;;;;4.35;0.85;;;14.00;99.90;;;;;;4950146;29;20509;-35
2022/09/14 01:57:49;;;;;;;2.00;0.90;;;13.90;99.90;;;;;;4952214;28;20043;-35
2022/09/14 02:00:17;;;;;;;2.17;0.93;;;13.90;99.90;;;;;;4953432;29;20039;-36
2022/09/14 02:02:54;;;;;;;2.85;1.20;;;13.90;99.90;;;;;;4952060;28;20054;-35
2022/09/14 02:05:26;;;;;;;3.75;1.17;;;13.90;99.90;;;;;;4950663;28;20039;-36
2022/09/14 02:07:52;;;;;;;4.07;1.05;;;13.90;99.90;;;;;;4951046;28;20039;-35
2022/09/14 02:10:17;;;;;;;2.58;1.13;;;13.90;99.90;;;;;;4950130;28;20520;-35
2022/09/14 02:12:43;;;;;;;2.40;1.05;;;13.90;99.90;;;;;;4950138;28;20122;-35
2022/09/14 02:15:12;;;;;;;2.47;0.90;;;13.90;99.90;;;;;;4953131;29;20464;-39
2022/09/14 02:17:38;;;;;;;2.17;0.82;;;14.00;99.90;;;;;;4949187;28;20049;-35
2022/09/14 02:20:08;;;;;;;2.45;0.82;;;14.00;99.90;;;;;;4951102;28;20039;-35
2022/09/14 02:22:34;;;;;;;2.78;1.23;;;14.00;99.90;;;;;;4952672;28;20074;-36
2022/09/14 02:25:00;;;;;;;3.72;1.10;;;14.10;99.90;;;;;;4951589;28;20042;-34
2022/09/14 02:27:26;;;;;;;4.07;1.60;;;14.10;99.90;;;;;;4953245;29;20039;-36
2022/09/14 02:29:52;;;;;;;1.70;0.95;;;14.10;99.90;;;;;;4951589;28;20039;-35
2022/09/14 02:32:44;;;;;;;2.70;1.40;;;14.10;99.90;;;;;;4952290;28;20618;-35
2022/09/14 02:35:12;;;;;;;4.03;1.33;;;14.10;99.90;;;;;;4953394;29;20035;-36
2022/09/14 02:37:47;;;;;;;3.10;1.13;;;14.10;99.90;;;;;;4934857;29;20126;-35
2022/09/14 02:40:35;;;;;;;3.67;1.38;;;14.20;99.90;;;;;;4946575;29;20106;-36
2022/09/14 02:43:25;;;;;;;2.30;1.13;;;14.20;99.90;;;;;;4950921;29;20501;-35
2022/09/14 02:46:12;;;;;;;4.35;1.35;;;14.20;99.90;;;;;;4943933;28;20062;-35
2022/09/14 02:48:59;;;;;;;2.92;1.60;;;14.20;99.90;;;;;;4951106;28;20039;-35
2022/09/14 02:51:32;;;;;;;2.92;1.08;;;14.20;99.90;;;;;;4950618;28;20039;-35
2022/09/14 02:54:10;;;;;;;3.30;1.60;;;14.20;99.90;;;;;;4950029;28;20491;-34
2022/09/14 02:56:36;;;;;;;3.50;1.38;;;14.20;99.90;;;;;;4950849;28;20043;-36
2022/09/14 02:59:03;;;;;;;5.13;1.40;;;14.20;99.90;;;;;;4951498;28;20093;-36
2022/09/14 03:01:29;;;;;;;2.85;1.20;;;14.20;99.90;;;;;;4950081;28;20468;-35
2022/09/14 03:03:55;;;;;;;4.25;1.38;;;14.20;99.90;;;;;;4947987;28;20182;-36
2022/09/14 03:06:21;;;;;;;4.43;1.08;;;14.30;99.90;;;;;;4951253;28;20039;-35
2022/09/14 03:08:48;;;;;;;2.55;1.05;;;14.30;99.90;;;;;;4949236;28;20043;-36
2022/09/14 03:11:14;;;;;;;4.88;1.20;;;14.20;99.90;;;;;;4949049;28;20051;-35
2022/09/14 03:13:40;;;;;;;2.83;1.15;;;14.20;99.90;;;;;;4949840;28;20488;-35
2022/09/14 03:16:09;;;;;;;3.83;1.15;;;14.30;99.90;;;;;;4951395;28;20039;-34
2022/09/14 03:18:35;;;;;;;2.50;0.90;;;14.20;99.90;;;;;;4939955;28;20046;-36
2022/09/14 03:21:03;;;;;;;1.80;0.80;;;14.20;99.90;;;;;;4949279;28;20043;-35
2022/09/14 03:23:29;;;;;;;3.05;1.05;;;14.20;99.90;;;;;;4949490;28;20058;-35
2022/09/14 03:25:55;;;;;;;4.13;1.02;;;14.20;99.90;;;;;;4947091;28;20039;-34
2022/09/14 03:28:20;;;;;;;3.63;1.25;;;14.20;99.90;;;;;;4951953;28;20445;-35
2022/09/14 03:30:46;;;;;;;2.55;0.80;;;14.20;99.90;;;;;;4947520;28;20035;-34
2022/09/14 03:33:14;;;;;;;3.05;1.05;;;14.10;99.90;;;;;;4951513;28;20506;-35
2022/09/14 03:35:40;;;;;;;1.65;0.68;;;14.10;99.90;;;;;;4949311;28;20519;-35
2022/09/14 03:38:05;;;;;;;3.53;1.20;;;14.10;99.90;;;;;;4951385;28;20031;-36
2022/09/14 03:40:31;;;;;;;2.03;0.88;;;14.10;99.90;;;;;;4950103;28;20126;-35
2022/09/14 03:42:57;;;;;;;1.38;0.70;;;14.10;99.90;;;;;;4951019;28;20115;-35
2022/09/14 03:45:23;;;;;;;3.38;0.73;;;14.10;99.90;;;;;;4948109;28;20071;-35
2022/09/14 03:47:49;;;;;;;1.52;0.75;;;14.10;99.90;;;;;;4950588;29;20047;-35
2022/09/14 03:50:16;;;;;;;1.50;0.90;;;14.10;99.90;;;;;;4950359;29;20047;-35
2022/09/14 03:52:42;;;;;;;2.10;1.00;;;14.10;99.90;;;;;;4949687;28;20114;-35
2022/09/14 03:55:09;;;;;;;3.03;0.95;;;14.10;99.90;;;;;;4950244;28;20163;-35
2022/09/14 03:57:35;;;;;;;2.92;1.08;;;14.10;99.90;;;;;;4952315;29;20074;-35
2022/09/14 04:00:01;;;;;;;1.90;0.77;;;14.10;99.90;;;;;;4950718;28;20043;-35
2022/09/14 04:02:28;;;;;;;1.80;1.10;;;14.10;99.90;;;;;;4951755;29;20043;-34
2022/09/14 04:04:54;;;;;;;2.13;0.77;;;14.10;99.90;;;;;;4950626;28;20055;-35
2022/09/14 04:07:19;;;;;;;2.63;1.00;;;14.10;99.90;;;;;;4952167;29;20123;-35
2022/09/14 04:09:45;;;;;;;2.13;1.17;;;14.10;99.90;;;;;;4951085;28;20074;-35
2022/09/14 04:12:11;;;;;;;2.53;1.10;;;14.10;99.90;;;;;;4951840;29;20047;-35
2022/09/14 04:14:37;;;;;;;2.00;1.20;;;14.20;99.90;;;;;;4950848;28;20504;-35
2022/09/14 04:17:03;;;;;;;2.78;1.10;;;14.20;99.90;;;;;;4952386;29;20555;-35
2022/09/14 04:19:29;;;;;;;1.90;0.88;;;14.20;99.90;;;;;;4949935;28;20051;-35
2022/09/14 04:21:55;;;;;;;2.72;1.10;;;14.20;99.90;;;;;;4950373;28;20548;-35
2022/09/14 04:24:21;;;;;;;6.45;1.45;;;14.20;99.90;;;;;;4950079;29;20131;-35
2022/09/14 04:26:47;;;;;;;2.25;0.98;;;14.20;99.90;;;;;;4951092;28;20082;-34
2022/09/14 04:29:13;;;;;;;1.70;0.93;;;14.20;99.90;;;;;;4953232;28;20051;-35
2022/09/14 04:31:39;;;;;;;2.25;1.00;;;14.20;99.90;;;;;;4955365;29;20126;-34
2022/09/14 04:34:05;;;;;;;6.10;1.58;;;14.20;99.90;;;;;;4954618;28;20038;-36
2022/09/14 04:36:31;;;;;;;4.07;1.67;;;14.20;99.90;;;;;;4953012;28;20125;-35
2022/09/14 04:39:01;;;;;;;2.08;1.00;;;14.20;99.90;;;;;;4953427;28;20043;-36
2022/09/14 04:41:28;;;;;;;1.73;0.90;;;14.20;99.90;;;;;;4950046;28;20051;-34
2022/09/14 04:43:55;;;;;;;3.05;1.10;;;14.20;99.90;;;;;;4952770;28;20061;-35
2022/09/14 04:46:33;;;;;;;2.67;0.98;;;14.30;99.90;;;;;;4953262;28;20505;-35
2022/09/14 04:48:59;;;;;;;2.47;0.93;;;14.30;99.90;;;;;;4949632;28;20047;-38
2022/09/14 04:51:28;;;;;;;5.85;1.08;;;14.30;99.90;;;;;;4953372;28;20078;-35
2022/09/14 04:53:55;;;;;;;4.25;1.05;;;14.20;99.90;;;;;;4952858;28;20047;-35
2022/09/14 04:56:23;;;;;;;2.28;1.05;;;14.20;99.90;;;;;;4954703;29;20051;-35
2022/09/14 04:58:51;;;;;;;2.75;1.13;;;14.30;99.90;;;;;;4952441;28;20043;-35
2022/09/14 05:01:23;;;;;;;2.85;1.20;;;14.30;99.90;;;;;;4956550;28;20500;-37
2022/09/14 05:03:49;;;;;;;2.67;1.17;;;14.30;99.90;;;;;;4953788;29;20047;-35
2022/09/14 05:06:18;;;;;;;4.95;1.20;;;14.30;99.90;;;;;;4953843;29;20047;-35
2022/09/14 05:08:44;;;;;;;2.85;1.10;;;14.30;99.90;;;;;;4953695;29;20538;-35
2022/09/14 05:11:14;;;;;;;4.32;1.35;;;14.30;99.90;;;;;;4951779;28;20055;-36
2022/09/14 05:13:40;;;;;;;5.30;1.40;;;14.30;99.90;;;;;;4953627;28;20059;-37
2022/09/14 05:16:14;;;;;;;3.17;1.27;;;14.30;99.90;;;;;;4953560;28;20527;-36
2022/09/14 05:18:40;;;;;;;3.28;1.33;;;14.30;99.90;;;;;;4951337;29;20527;-35
2022/09/14 05:21:09;;;;;;;4.57;1.35;;;14.30;99.90;;;;;;4934617;28;20051;-34
2022/09/14 05:23:35;;;;;;;3.17;1.00;;;14.30;99.90;;;;;;4953524;29;20047;-36
2022/09/14 05:26:02;;;;;;;5.53;1.67;;;14.30;99.90;;;;;;4951566;28;20043;-36
2022/09/14 05:28:28;;;;;;;3.65;1.30;;;14.40;99.90;;;;;;4952176;28;20035;-35
2022/09/14 05:30:53;;;;;;;4.28;1.38;;;14.40;99.90;;;;;;4948979;28;20128;-34
2022/09/14 05:33:19;;;;;;;5.45;1.73;;;14.40;99.90;;;;;;4951323;28;20440;-36
2022/09/14 05:35:46;;;;;;;2.25;1.30;;;14.40;99.90;;;;;;4947863;28;20071;-35
2022/09/14 05:38:11;;;;;;;5.45;1.55;;;14.40;99.90;;;;;;4948310;28;20039;-37
2022/09/14 05:40:37;;;;;;;4.65;1.90;;;14.40;99.90;;;;;;4950188;28;20093;-36
2022/09/14 05:43:03;;;;;;;3.30;1.25;;;14.40;99.90;;;;;;4951875;28;20105;-35
2022/09/14 05:45:28;;;;;;;4.28;1.35;;;14.40;99.90;;;;;;4952896;28;20094;-36
2022/09/14 05:47:54;;;;;;;4.30;1.60;;;14.40;99.90;;;;;;4953857;29;20035;-35
2022/09/14 05:50:20;;;;;;;4.03;1.20;;;14.50;99.90;;;;;;4951851;28;20094;-35
2022/09/14 05:52:47;;;;;;;2.17;1.35;;;14.50;99.90;;;;;;4952318;28;20072;-35
2022/09/14 05:55:13;;;;;;;6.65;2.13;;;14.40;99.90;;;;;;4942625;28;20496;-35
2022/09/14 05:57:39;;;;;;;3.67;1.60;;;14.40;99.90;;;;;;4941841;28;20039;-36
2022/09/14 06:00:05;;;;;;;4.05;1.73;;;14.30;99.90;;;;;;4948571;28;20050;-35
2022/09/14 06:02:31;;;;;;;3.03;1.33;;;14.30;99.90;;;;;;4950508;28;20765;-34
2022/09/14 06:04:56;;;;;;;3.55;1.58;;;14.40;99.90;;;;;;4949032;28;20038;-35
2022/09/14 06:07:22;;;;;;;3.40;1.73;;;14.30;99.90;;;;;;4947079;28;20105;-35
2022/09/14 06:09:48;;;;;;;3.45;1.30;;;14.40;99.90;;;;;;4950088;28;20612;-41
2022/09/14 06:12:13;;;;;;;2.70;1.30;;;14.30;99.90;;;;;;4944938;28;20528;-34
2022/09/14 06:14:39;;;;;;;3.83;1.75;;;14.30;99.90;;;;;;4949228;28;20512;-35
2022/09/14 06:17:05;;;;;;;6.53;2.03;;;14.30;99.90;;;;;;4950738;28;20118;-36
2022/09/14 06:19:31;;;;;;;5.03;1.85;;;14.30;99.90;;;;;;4944104;28;20047;-35
2022/09/14 06:21:57;;;;;;;3.70;1.58;;;14.30;99.90;;;;;;4948348;28;20074;-35
2022/09/14 06:24:23;;;;;;;9.23;2.67;;;14.30;99.90;;;;;;4950321;28;20035;-35
2022/09/14 06:26:48;;;;;;;2.67;1.40;;;14.40;99.90;;;;;;4943452;28;20036;-35
2022/09/14 06:29:14;;;;;;;4.53;1.58;;;14.40;99.90;;;;;;4950022;28;20054;-37
2022/09/14 06:31:40;;;;;;;5.40;1.80;;;14.40;99.90;;;;;;4946884;28;20122;-35
2022/09/14 06:34:05;;;;;;;5.10;2.50;;;14.40;99.90;;;;;;4947132;28;20129;-36
2022/09/14 06:36:31;;;;;;;5.43;1.83;;;14.40;99.90;;;;;;4930691;28;20481;-36
2022/09/14 06:38:59;;;;;;;5.00;1.60;;;14.50;99.90;;;;;;4947963;28;20043;-36
2022/09/14 06:41:31;;;;;;;3.90;1.63;;;14.60;99.90;;;;;;4947561;28;20456;-36
2022/09/14 06:43:58;;;;;;;;;;;14.70;99.90;;;;;;4947539;28;20031;-36
2022/09/14 06:46:30;;;;;;;4.25;1.95;;;14.70;99.90;;;;;;4949998;28;19973;-37
2022/09/14 06:49:01;;;;;;;4.65;2.20;;;14.80;99.90;;;;;;4950891;29;20055;-38
2022/09/14 06:51:36;;;;;;;10.73;2.83;;;14.80;99.90;;;;;;4951850;28;20098;-37
2022/09/14 06:54:03;;;;;;;5.53;2.05;;;14.90;99.90;;;;;;4944241;28;20046;-36
2022/09/14 06:56:34;;;;;;;5.03;1.88;;;15.00;99.90;;;;;;4950718;28;20035;-36
2022/09/14 06:59:00;;;;;;;5.97;2.50;;;15.10;99.90;;;;;;4949102;28;20110;-36
2022/09/14 07:01:26;;;;;;;4.50;2.03;;;15.10;99.90;;;;;;4947027;28;20035;-36
2022/09/14 07:03:52;;;;;;;6.25;1.95;;;15.10;99.90;;;;;;4939943;28;20047;-36
2022/09/14 07:06:21;;;;;;;4.88;1.60;;;15.20;99.90;;;;;;4947417;28;20035;-36
2022/09/14 07:08:48;;;;;;;6.03;1.60;;;15.20;99.90;;;;;;4947606;28;20042;-35
2022/09/14 07:11:16;;;;;;;6.00;2.10;;;15.30;99.90;;;;;;4947589;28;20058;-35
2022/09/14 07:13:42;;;;;;;5.50;2.10;;;15.40;99.90;;;;;;4943590;28;20585;-36
2022/09/14 07:16:09;;;;;;;5.90;2.50;;;15.40;99.90;;;;;;4937836;28;20492;-35
2022/09/14 07:18:35;;;;;;;4.75;2.53;;;15.50;99.90;;;;;;4940800;28;20086;-35
2022/09/14 07:21:15;;;;;;;6.93;2.25;;;15.40;99.90;;;;;;4944961;28;20047;-35
2022/09/14 07:23:43;;;;;;;7.65;2.65;;;15.40;99.90;;;;;;4945664;28;20051;-36
2022/09/14 07:26:14;;;;;;;6.45;2.08;;;15.50;99.90;;;;;;4943549;28;20515;-36
2022/09/14 07:28:41;;;;;;;6.78;1.98;;;15.60;99.90;;;;;;4949274;28;20497;-36
2022/09/14 07:31:30;;;;;;;4.53;2.28;;;15.70;99.90;;;;;;4943812;28;20035;-36
2022/09/14 07:33:58;;;;;;;7.72;2.20;;;15.90;99.90;;;;;;4945538;28;20482;-35
2022/09/14 07:36:26;;;;;;;7.15;1.83;;;16.00;99.90;;;;;;4947715;28;20035;-36
2022/09/14 07:38:52;;;;;;;7.47;2.25;;;16.10;99.90;;;;;;4941648;28;20162;-34
2022/09/14 07:41:23;;;;;;;3.20;1.95;;;16.30;99.90;;;;;;4931113;28;20473;-35
2022/09/14 07:43:51;;;;;;;4.78;1.88;;;16.40;99.90;;;;;;4949198;28;20039;-36
2022/09/14 07:46:17;;;;;;;8.30;1.73;;;16.40;99.90;;;;;;4948400;28;20050;-49
2022/09/14 07:48:42;;;;;;;3.90;1.50;;;16.60;99.90;;;;;;4939126;28;20481;-37
2022/09/14 07:51:09;;;;;;;4.60;2.03;;;16.60;99.90;;;;;;4946586;28;20067;-39
2022/09/14 07:53:44;;;;;;;4.95;2.00;;;16.70;99.90;;;;;;4947166;28;20130;-36
2022/09/14 07:56:11;;;;;;;5.22;1.55;;;16.80;99.90;;;;;;4947350;28;20094;-37
2022/09/14 07:58:37;;;;;;;4.57;1.38;;;16.80;99.90;;;;;;4947919;28;20070;-36
2022/09/14 08:01:10;;;;;;;4.90;1.65;;;16.90;99.90;;;;;;4947851;28;20043;-36
2022/09/14 08:03:38;;;;;;;4.55;1.55;;;16.90;99.90;;;;;;4949625;28;20043;-38
2022/09/14 08:06:10;;;;;;;6.38;1.27;;;16.90;99.90;;;;;;4947006;28;20090;-36
2022/09/14 08:08:38;;;;;;;6.05;1.50;;;17.00;99.90;;;;;;4953045;28;20058;-38
2022/09/14 08:11:30;;;;;;;6.63;1.63;;;17.00;99.90;;;;;;4951480;28;20043;-37
2022/09/14 08:14:02;;;;;;;5.67;1.80;;;17.20;99.90;;;;;;4944288;28;20133;-37
2022/09/14 08:16:29;;;;;;;4.95;2.08;;;17.20;99.90;;;;;;4950938;28;20039;-36
2022/09/14 08:18:57;;;;;;;5.20;1.70;;;17.30;99.90;;;;;;4953037;28;20042;-38
2022/09/14 08:21:23;;;;;;;4.82;1.50;;;17.30;99.90;;;;;;4950684;28;20043;-37
2022/09/14 08:23:49;;;;;;;3.15;1.50;;;17.40;99.90;;;;;;4947661;28;20046;-37
2022/09/14 08:26:20;;;;;;;5.05;1.35;;;17.50;99.90;;;;;;4952321;28;20051;-38
2022/09/14 08:28:46;;;;;;;4.70;0.93;;;17.60;99.90;;;;;;4952469;28;20079;-37
2022/09/14 08:31:19;;;;;;;3.70;0.95;;;17.60;99.90;;;;;;4951610;28;20047;-36
2022/09/14 08:33:50;;;;;;;5.75;0.90;;;17.60;99.90;;;;;;4950902;28;20042;-37
2022/09/14 08:36:20;;;;;;;3.92;1.00;;;17.70;99.90;;;;;;4947667;28;20846;-36
2022/09/14 08:38:46;;;;;;;5.10;1.05;;;17.80;99.90;;;;;;4943026;28;20062;-36
2022/09/14 08:41:29;;;;;;;6.15;1.50;;;17.90;99.90;;;;;;4945232;28;20074;-37
2022/09/14 08:44:29;;;;;;;5.00;0.55;;;18.00;99.90;;;;;;4946732;28;20127;-36
2022/09/14 08:46:58;;;;;;;7.85;0.80;;;18.10;99.90;;;;;;4935876;29;20110;-36
2022/09/14 08:49:40;;;;;;;3.70;0.50;;;18.10;99.90;;;;;;4943996;28;20083;-38
2022/09/14 08:52:32;;;;;;;1.85;0.30;;;18.20;99.90;;;;;;4951173;28;20042;-36
2022/09/14 08:55:14;;;;;;;2.47;0.37;;;18.20;99.90;;;;;;4951007;28;20065;-37
2022/09/14 08:57:49;;;;;;;2.13;0.20;;;18.30;99.90;;;;;;4952255;28;20138;-37
2022/09/14 09:00:19;;;;;;;2.28;0.30;;;18.40;99.90;;;;;;4952552;28;20039;-37
2022/09/14 09:03:09;;;;;;;2.80;0.52;;;18.40;99.90;;;;;;4952959;28;20050;-37
2022/09/14 09:05:46;;;;;;;4.60;0.30;;;18.50;99.90;;;;;;4953634;29;20493;-38
2022/09/14 09:08:42;;;;;;;3.30;0.30;;;18.60;99.90;;;;;;4945807;28;20047;-35
2022/09/14 09:11:17;;;;;;;2.17;0.30;;;18.60;99.90;;;;;;4947011;28;20454;-36
2022/09/14 09:13:44;;;;;;;1.70;0.30;;;18.60;99.90;;;;;;4948786;28;20050;-36
2022/09/14 09:16:14;;;;;;;4.13;0.50;;;18.70;99.90;;;;;;4949384;28;20043;-36
2022/09/14 09:18:45;;;;;;;3.97;0.50;;;18.70;99.90;;;;;;4949185;28;20082;-38
2022/09/14 09:21:30;;;;;;;1.63;0.30;;;18.70;99.90;;;;;;4951504;28;20168;-37
2022/09/14 09:24:23;;;;;;;1.30;0.30;;;18.80;99.90;;;;;;4955344;28;20054;-39
2022/09/14 09:26:49;;;;;;;1.38;0.20;;;18.80;99.90;;;;;;4947236;28;20534;-37
2022/09/14 09:29:15;;;;;;;1.58;0.30;;;18.90;99.90;;;;;;4946476;28;20058;-36
2022/09/14 09:31:46;;;;;;;1.48;0.30;;;18.90;99.90;;;;;;4947621;28;20086;-35
2022/09/14 09:34:24;;;;;;;2.80;0.32;;;18.90;99.90;;;;;;4958851;28;20078;-34
2022/09/14 09:36:50;;;;;;;1.02;0.28;;;18.90;99.90;;;;;;4953142;28;20512;-35
2022/09/14 09:39:16;;;;;;;2.63;0.40;;;18.90;99.90;;;;;;4949622;28;20047;-35
2022/09/14 09:41:48;;;;;;;3.55;0.30;;;18.90;99.90;;;;;;4951214;28;20187;-34
2022/09/14 09:44:16;;;;;;;2.93;0.30;;;19.00;99.90;;;;;;4950316;28;20061;-37
2022/09/14 09:47:08;;;;;;;2.55;0.40;;;19.00;99.90;;;;;;4950689;28;20337;-34
2022/09/14 09:49:37;;;;;;;3.45;0.40;;;19.10;99.40;;;;;;4943107;28;20106;-34
2022/09/14 09:52:21;;;;;;;6.97;0.40;;;19.10;99.90;;;;;;4948019;28;20043;-35
2022/09/14 09:54:51;;;;;;;0.65;0.20;;;19.20;99.00;;;;;;4950923;28;20545;-34
2022/09/14 09:57:35;;;;;;;2.25;0.22;;;19.20;99.90;;;;;;4951793;29;20054;-35
2022/09/14 10:00:09;;;;;;;4.18;0.73;;;19.30;99.30;;;;;;4945074;28;20540;-34
2022/09/14 10:02:34;;;;;;;1.88;0.30;;;19.40;98.70;;;;;;4948641;28;20054;-36
2022/09/14 10:05:02;;;;;;;2.45;0.30;;;19.50;98.40;;;;;;4951455;28;20043;-35
2022/09/14 10:07:30;;;;;;;3.75;0.30;;;19.50;98.10;;;;;;4946891;29;20051;-37
2022/09/14 10:10:04;;;;;;;0.70;0.20;;;19.50;98.10;;;;;;4934012;29;20121;-36
2022/09/14 10:12:30;;;;;;;1.45;0.20;;;19.50;97.50;;;;;;4946487;28;20524;-37
2022/09/14 10:15:28;;;;;;;1.23;0.20;;;19.40;97.30;;;;;;4949679;28;20050;-39
2022/09/14 10:18:00;;;;;;;1.67;0.30;;;19.40;95.80;;;;;;4935992;28;20564;-36
2022/09/14 10:20:26;;;;;;;1.63;0.25;;;19.50;96.80;;;;;;4948592;28;20045;-38
2022/09/14 10:22:52;;;;;;;1.65;0.30;;;19.70;96.40;;;;;;4949056;28;20099;-37
2022/09/14 10:25:18;;;;;;;3.35;0.35;;;19.90;96.00;;;;;;4948372;28;20047;-36
2022/09/14 10:28:01;;;;;;;1.80;0.30;;;20.20;95.30;;;;;;4949803;28;20525;-36
2022/09/14 10:30:38;;;;;;;1.80;0.35;;;20.50;91.30;;;;;;4933891;29;20051;-37
2022/09/14 10:33:07;;;;;;;2.33;0.22;;;20.70;92.40;;;;;;4948592;28;20035;-37
2022/09/14 10:35:46;;;;;;;1.23;0.20;;;20.80;91.70;;;;;;4948568;28;20035;-38
2022/09/14 10:38:14;;;;;;;1.25;0.30;;;20.70;90.00;;;;;;4945907;28;20051;-36
2022/09/14 10:40:44;;;;;;;1.67;0.28;;;20.60;91.20;;;;;;4944217;28;20053;-39
2022/09/14 10:43:47;;;;;;;1.42;0.30;;;20.50;90.80;;;;;;4940209;28;20117;-37
2022/09/14 10:46:22;;;;;;;0.50;0.10;;;20.40;90.60;;;;;;4874755;29;20109;-53
2022/09/14 10:49:03;;;;;;;2.10;0.22;;;20.40;91.40;;;;;;4936018;28;20126;-45
2022/09/14 10:52:09;;;;;;;0.85;0.20;;;20.50;91.40;;;;;;4944847;28;20035;-36
2022/09/14 10:55:13;;;;;;;2.00;0.30;;;20.50;90.50;;;;;;4946191;28;20057;-37
2022/09/14 10:57:38;;;;;;;1.80;0.20;;;20.60;89.90;;;;;;4948326;28;20129;-38
2022/09/14 11:00:18;;;;;;;1.58;0.20;;;20.60;90.20;;;;;;4947997;28;20198;-39
2022/09/14 11:02:49;;;;;;;1.35;0.30;;;20.80;88.80;;;;;;4944728;28;20047;-37
2022/09/14 11:05:35;;;;;;;1.75;0.20;;;20.90;89.10;;;;;;4944421;28;20043;-38
2022/09/14 11:08:21;;;;;;;1.65;0.55;;;21.00;87.60;;;;;;4947787;28;20043;-36
2022/09/14 11:11:05;;;;;;;3.22;0.70;;;21.10;84.90;;;;;;4946135;28;20103;-37
2022/09/14 11:13:46;;;;;;;1.95;0.30;;;21.20;87.10;;;;;;4948695;28;20087;-37
2022/09/14 11:16:49;;;;;;;1.67;0.10;;;21.20;87.60;;;;;;4945790;28;20055;-38
2022/09/14 11:19:50;;;;;;;2.55;0.30;;;21.20;87.60;;;;;;4928563;28;20492;-36
2022/09/14 11:22:34;;;;;;;2.15;0.30;;;21.20;85.80;;;;;;4949527;28;20078;-39
2022/09/14 11:25:32;;;;;;;3.50;0.20;;;21.20;86.40;;;;;;4944568;28;20082;-37
2022/09/14 11:28:11;;;;;;;3.78;0.25;;;21.30;82.60;;;;;;4944427;28;20052;-40
2022/09/14 11:30:44;;;;;;;3.50;0.40;;;21.30;83.30;;;;;;4944951;28;20039;-38
2022/09/14 11:33:26;;;;;;;2.00;0.30;;;21.30;82.00;;;;;;4947479;28;20050;-56
2022/09/14 11:35:55;;;;;;;;;;;21.30;81.10;;;;;;4945040;28;20039;-38
2022/09/14 11:38:24;;;;;;;2.78;0.30;;;21.40;71.10;;;;;;4954176;28;20372;-46
2022/09/14 11:40:50;;;;;;;2.22;0.40;;;21.40;74.70;;;;;;4952432;28;20497;-36
2022/09/14 11:43:47;;;;;;;5.03;0.20;;;21.30;79.60;;;;;;4951968;28;20058;-39
2022/09/14 11:46:26;;;;;;;1.25;0.20;;;21.40;77.90;;;;;;4940193;28;20059;-37
2022/09/14 11:48:56;;;;;;;2.20;0.25;;;21.70;80.30;;;;;;4948551;28;20047;-37
2022/09/14 11:51:26;;;;;;;3.85;0.20;;;21.80;77.90;;;;;;4949519;28;20036;-43
2022/09/14 11:53:51;;;;;;;1.02;0.20;;;21.60;76.40;;;;;;4952793;28;20037;-38
2022/09/14 11:56:38;;;;;;;1.10;0.20;;;21.40;77.80;;;;;;4948206;28;20043;-39
2022/09/14 11:59:06;;;;;;;2.08;0.20;;;21.50;76.50;;;;;;4952091;28;20051;-36
2022/09/14 12:01:39;;;;;;;2.65;0.20;;;21.60;78.40;;;;;;4948596;28;20059;-37
2022/09/14 12:04:07;;;;;;;3.25;0.20;;;21.80;73.40;;;;;;4949329;28;20043;-37
2022/09/14 12:06:36;;;;;;;4.10;0.38;;;22.10;76.10;;;;;;4950561;28;20050;-36
2022/09/14 12:09:18;;;;;;;2.40;0.20;;;22.50;75.10;;;;;;4951941;28;20044;-37
2022/09/14 12:11:46;;;;;;;0.77;0.20;;;22.70;72.10;;;;;;4952702;28;20062;-38
2022/09/14 12:14:31;;;;;;;1.30;0.20;;;22.50;73.50;;;;;;4946900;28;20666;-39
2022/09/14 12:17:01;;;;;;;1.27;0.20;;;22.40;73.90;;;;;;4952279;28;20645;-37
2022/09/14 12:19:27;;;;;;;2.35;0.30;;;22.20;74.60;;;;;;4948028;28;20039;-38
2022/09/14 12:21:53;;;;;;;1.60;0.28;;;22.10;74.90;;;;;;4953674;28;20623;-38
2022/09/14 12:24:21;;;;;;;1.58;0.30;;;21.90;74.20;;;;;;4950786;28;20046;-38
2022/09/14 12:26:47;;;;;;;1.27;0.30;;;21.70;71.50;;;;;;4951523;28;20378;-38
2022/09/14 12:29:32;;;;;;;3.13;0.32;;;21.50;75.60;;;;;;4949294;28;20054;-37
2022/09/14 12:32:04;;;;;;;1.30;0.20;;;21.60;76.40;;;;;;4949270;28;20047;-36
2022/09/14 12:34:32;;;;;;;1.90;0.33;;;21.70;76.70;;;;;;4951611;28;20036;-37
2022/09/14 12:37:30;;;;;;;4.47;0.60;;;21.80;74.90;;;;;;4951148;28;20340;-37
2022/09/14 12:40:35;;;;;;;1.60;0.30;;;21.70;73.90;;;;;;4951846;28;20045;-36
2022/09/14 12:43:31;;;;;;;1.80;0.30;;;21.70;73.20;;;;;;4925434;29;20036;-36
2022/09/14 12:46:30;;;;;;;2.28;0.40;;;21.60;72.60;;;;;;4947317;28;20043;-36
2022/09/14 12:49:23;;;;;;;2.00;0.25;;;21.50;74.30;;;;;;4945208;28;20094;-37
2022/09/14 12:51:50;;;;;;;2.92;0.38;;;21.50;78.00;;;;;;4944213;28;20126;-36
2022/09/14 12:54:34;;;;;;;1.75;0.40;;;21.50;79.40;;;;;;4948288;28;20098;-37
2022/09/14 12:57:15;;;;;;;3.72;0.20;;;21.50;76.60;;;;;;4944596;28;20374;-37
2022/09/14 12:59:50;;;;;;;1.98;0.40;;;21.60;77.20;;;;;;4950421;28;20058;-37
2022/09/14 13:02:51;;;;;;;1.52;0.20;;;22.30;75.30;;;;;;4949758;28;20452;-38
2022/09/14 13:05:22;;;;;;;0.63;0.10;;;23.40;64.40;;;;;;4915302;28;20409;-37
2022/09/14 13:07:48;;;;;;;2.28;0.20;;;24.20;58.00;;;;;;4947233;28;20497;-38
2022/09/14 13:10:36;;;;;;;1.75;0.38;;;24.60;54.30;;;;;;4946039;28;21787;-36
2022/09/14 13:13:13;;;;;;;0.82;0.30;;;24.80;49.80;;;;;;4943805;28;20062;-35